Time;durP1;ratioP1;P1;durP2;ratioP2;P2;SDS_P1;SDS_P2;PMS_P1;PMS_P2;Temp;Humidity;BMP_temperature;BMP_pressure;BME280_temperature;BME280_humidity;BME280_pressure;Samples;Min_cycle;Max_cycle;Signal;HPM_P1;HPM_P2
2024/01/03 00:02:00;;;;;;;;;;;;;;;6.88;74.56;98336.03;4342590;32;33382;-85
2024/01/03 00:04:31;;;;;;;;;;;;;;;6.90;75.00;98331.69;4375975;32;33447;-85
2024/01/03 00:06:59;;;;;;;;;;;;;;;7.05;73.70;98331.37;4370093;32;33944;-84
2024/01/03 00:09:28;;;;;;;;;;;;;;;7.32;73.05;98324.78;4370609;32;33177;-85
2024/01/03 00:12:00;;;;;;;;;;;;;;;7.32;73.21;98326.50;4367637;32;34320;-85
2024/01/03 00:14:33;;;;;;;;;;;;;;;7.38;72.99;98324.66;4375748;32;33922;-85
2024/01/03 00:17:02;;;;;;;;;;;;;;;7.53;72.09;98314.88;4371051;32;35498;-85
2024/01/03 00:19:31;;;;;;;;;;;;;;;7.38;72.89;98316.91;4370158;32;33047;-85
2024/01/03 00:22:03;;;;;;;;;;;;;;;7.39;73.19;98303.13;4364684;32;35462;-85
2024/01/03 00:24:31;;;;;;;;;;;;;;;7.53;72.44;98307.13;4364999;32;34183;-85
2024/01/03 00:27:04;;;;;;;;;;;;;;;7.73;70.90;98304.91;4361912;32;33626;-85
2024/01/03 00:29:39;;;;;;;;;;;;;;;7.44;72.27;98303.88;4364300;32;32517;-85
2024/01/03 00:32:07;;;;;;;;;;;;;;;7.38;72.51;98308.31;4369104;32;34073;-84
2024/01/03 00:34:39;;;;;;;;;;;;;;;7.40;72.28;98312.56;4370846;32;33949;-85
2024/01/03 00:37:15;;;;;;;;;;;;;;;7.71;70.66;98327.34;4376222;32;33742;-85
2024/01/03 00:39:46;;;;;;;;;;;;;;;7.43;72.03;98327.13;4376270;32;33852;-85
2024/01/03 00:42:23;;;;;;;;;;;;;;;7.72;70.76;98334.19;4368049;32;33150;-85
2024/01/03 00:44:52;;;;;;;;;;;;;;;7.60;71.36;98335.31;4355574;32;34266;-86
2024/01/03 00:47:22;;;;;;;;;;;;;;;7.50;71.66;98338.16;4355717;32;34337;-87
2024/01/03 00:49:50;;;;;;;;;;;;;;;7.65;71.40;98350.72;4361127;32;33612;-87
2024/01/03 00:52:28;;;;;;;;;;;;;;;7.58;71.75;98350.00;4371374;32;33829;-87
2024/01/03 00:54:57;;;;;;;;;;;;;;;7.69;71.91;98349.75;4358406;32;33890;-86
2024/01/03 00:57:29;;;;;;;;;;;;;;;7.66;71.70;98355.84;4355740;32;34528;-86
2024/01/03 00:59:58;;;;;;;;;;;;;;;7.57;72.30;98339.72;4356897;32;33025;-86
2024/01/03 01:02:27;;;;;;;;;;;;;;;7.64;72.34;98326.63;4360990;32;33833;-85
2024/01/03 01:04:56;;;;;;;;;;;;;;;7.53;72.70;98317.44;4356244;32;34693;-85
2024/01/03 01:07:30;;;;;;;;;;;;;;;7.52;72.80;98303.69;4359830;32;34516;-85
2024/01/03 01:09:59;;;;;;;;;;;;;;;7.70;72.16;98310.16;4370745;32;33665;-85
2024/01/03 01:12:31;;;;;;;;;;;;;;;7.62;72.46;98309.50;4376046;32;33228;-85
2024/01/03 01:15:00;;;;;;;;;;;;;;;7.80;71.47;98319.38;4375883;32;33947;-85
2024/01/03 01:17:29;;;;;;;;;;;;;;;8.06;70.13;98317.88;4370126;32;33823;-85
2024/01/03 01:19:58;;;;;;;;;;;;;;;7.95;70.24;98336.25;4370244;32;32959;-85
2024/01/03 01:22:27;;;;;;;;;;;;;;;7.81;70.93;98338.31;4371405;32;34460;-85
2024/01/03 01:24:57;;;;;;;;;;;;;;;7.77;71.22;98331.50;4361497;32;34744;-85
2024/01/03 01:27:25;;;;;;;;;;;;;;;7.96;70.22;98325.03;4355278;32;33683;-85
2024/01/03 01:29:57;;;;;;;;;;;;;;;7.88;70.81;98335.53;4368469;32;33054;-86
2024/01/03 01:32:26;;;;;;;;;;;;;;;7.76;70.94;98329.81;4373282;32;33615;-85
2024/01/03 01:34:55;;;;;;;;;;;;;;;7.82;71.02;98322.75;4377321;32;34965;-86
2024/01/03 01:37:23;;;;;;;;;;;;;;;7.95;70.29;98315.59;4371748;32;34443;-86
2024/01/03 01:39:58;;;;;;;;;;;;;;;8.09;69.65;98308.34;4372341;32;33227;-86
2024/01/03 01:42:28;;;;;;;;;;;;;;;8.06;69.91;98307.56;4373797;32;34126;-85
2024/01/03 01:44:58;;;;;;;;;;;;;;;7.81;70.62;98297.00;4371994;32;33692;-86
2024/01/03 01:47:27;;;;;;;;;;;;;;;7.97;70.28;98294.88;4377004;32;33818;-85
2024/01/03 01:49:58;;;;;;;;;;;;;;;8.16;69.27;98293.50;4357766;32;33217;-85
2024/01/03 01:52:26;;;;;;;;;;;;;;;7.96;69.97;98298.34;4361942;32;33610;-86
2024/01/03 01:54:55;;;;;;;;;;;;;;;7.85;70.77;98291.72;4350766;32;33073;-86
2024/01/03 01:57:28;;;;;;;;;;;;;;;7.88;70.37;98285.63;4377457;32;33621;-85
2024/01/03 01:59:57;;;;;;;;;;;;;;;8.07;69.63;98296.31;4373288;32;34291;-86
2024/01/03 02:02:44;;;;;;;;;;;;;;;8.06;69.54;98299.81;4358173;32;34068;-86
2024/01/03 02:05:13;;;;;;;;;;;;;;;8.08;69.80;98295.47;4356780;32;33932;-84
2024/01/03 02:07:47;;;;;;;;;;;;;;;8.00;69.83;98294.81;4356801;32;34080;-85
2024/01/03 02:10:16;;;;;;;;;;;;;;;8.01;70.04;98302.50;4362364;32;32771;-86
2024/01/03 02:12:48;;;;;;;;;;;;;;;8.01;69.96;98289.59;4363374;32;34835;-86
2024/01/03 02:15:16;;;;;;;;;;;;;;;7.96;70.28;98286.28;4371253;32;34163;-86
2024/01/03 02:17:57;;;;;;;;;;;;;;;8.06;69.67;98280.00;4371409;32;35413;-87
2024/01/03 02:20:27;;;;;;;;;;;;;;;8.18;69.34;98285.72;4371597;32;32621;-86
2024/01/03 02:22:59;;;;;;;;;;;;;;;8.18;69.55;98288.31;4376982;32;34703;-87
2024/01/03 02:25:29;;;;;;;;;;;;;;;7.98;70.04;98281.94;4371507;32;34824;-85
2024/01/03 02:27:58;;;;;;;;;;;;;;;8.10;69.60;98273.88;4371152;32;34477;-86
2024/01/03 02:30:30;;;;;;;;;;;;;;;7.53;72.58;98271.84;4374141;32;32720;-86
2024/01/03 02:33:00;;;;;;;;;;;;;;;7.95;70.50;98260.47;4372475;32;33568;-86
2024/01/03 02:35:36;;;;;;;;;;;;;;;7.97;70.75;98253.56;4369187;32;33735;-87
2024/01/03 02:38:06;;;;;;;;;;;;;;;7.74;72.08;98249.00;4356341;32;33865;-87
2024/01/03 02:40:36;;;;;;;;;;;;;;;7.96;70.85;98241.53;4356873;32;33548;-88
2024/01/03 02:43:05;;;;;;;;;;;;;;;8.08;70.43;98243.81;4375159;32;35506;-87
2024/01/03 02:45:39;;;;;;;;;;;;;;;8.03;70.74;98238.75;4376915;32;34911;-88
2024/01/03 02:48:08;;;;;;;;;;;;;;;7.95;71.16;98226.91;4361014;32;34774;-86
2024/01/03 02:50:43;;;;;;;;;;;;;;;8.25;70.47;98239.03;4370168;32;32979;-86
2024/01/03 02:53:14;;;;;;;;;;;;;;;7.93;71.67;98234.72;4373237;32;34794;-88
2024/01/03 02:55:43;;;;;;;;;;;;;;;8.10;71.07;98248.03;4371406;32;34164;-87
2024/01/03 02:58:11;;;;;;;;;;;;;;;7.83;72.17;98234.13;4376920;32;33878;-88
2024/01/03 03:00:41;;;;;;;;;;;;;;;7.99;71.70;98234.53;4371403;32;34066;-88
2024/01/03 03:03:09;;;;;;;;;;;;;;;7.97;72.07;98218.25;4372046;32;34052;-88
2024/01/03 03:05:38;;;;;;;;;;;;;;;7.93;71.82;98229.56;4372333;32;34644;-88
2024/01/03 03:08:08;;;;;;;;;;;;;;;7.84;72.72;98227.22;4365006;32;33885;-87
2024/01/03 03:10:41;;;;;;;;;;;;;;;8.13;71.54;98231.59;4356386;32;33856;-89
2024/01/03 03:13:11;;;;;;;;;;;;;;;7.95;72.41;98229.50;4360282;32;33587;-87
2024/01/03 03:15:39;;;;;;;;;;;;;;;7.87;72.85;98233.13;4356069;32;32623;-87
2024/01/03 03:18:08;;;;;;;;;;;;;;;7.81;73.49;98219.56;4371044;32;34646;-89
2024/01/03 03:20:37;;;;;;;;;;;;;;;7.97;73.09;98238.91;4376640;32;33733;-88
2024/01/03 03:23:06;;;;;;;;;;;;;;;7.96;72.84;98246.72;4373638;32;33656;-88
2024/01/03 03:25:34;;;;;;;;;;;;;;;7.73;74.02;98242.09;4371063;32;34336;-88
2024/01/03 03:28:12;;;;;;;;;;;;;;;7.84;73.84;98222.88;4370418;32;34155;-88
2024/01/03 03:30:40;;;;;;;;;;;;;;;7.96;73.19;98226.88;4376413;32;33491;-89
2024/01/03 03:33:09;;;;;;;;;;;;;;;8.03;73.08;98210.34;4366493;32;33828;-89
2024/01/03 03:35:37;;;;;;;;;;;;;;;8.08;72.99;98226.56;4360232;32;35075;-90
2024/01/03 03:38:08;;;;;;;;;;;;;;;8.02;73.25;98231.91;4364510;32;33632;-89
2024/01/03 03:40:42;;;;;;;;;;;;;;;7.88;74.37;98234.00;4367881;32;33733;-89
2024/01/03 03:43:12;;;;;;;;;;;;;;;8.05;73.59;98224.06;4376114;32;33558;-88
2024/01/03 03:45:41;;;;;;;;;;;;;;;8.29;72.63;98226.88;4367597;32;34995;-88
2024/01/03 03:48:10;;;;;;;;;;;;;;;8.07;73.60;98242.97;4371344;32;33989;-88
2024/01/03 03:50:42;;;;;;;;;;;;;;;8.07;73.83;98242.97;4372469;32;32951;-88
2024/01/03 03:53:11;;;;;;;;;;;;;;;8.28;73.08;98240.69;4376192;32;33467;-88
2024/01/03 03:55:41;;;;;;;;;;;;;;;8.44;72.15;98235.97;4370781;32;33806;-88
2024/01/03 03:58:16;;;;;;;;;;;;;;;7.97;73.64;98248.37;4370827;32;34176;-87
2024/01/03 04:00:44;;;;;;;;;;;;;;;7.95;74.37;98260.47;4372446;32;33510;-87
2024/01/03 04:03:13;;;;;;;;;;;;;;;7.83;74.61;98256.50;4370392;32;34809;-87
2024/01/03 04:05:42;;;;;;;;;;;;;;;7.86;74.47;98259.84;4376318;32;34260;-87
2024/01/03 04:08:10;;;;;;;;;;;;;;;7.96;74.01;98269.94;4370234;32;34667;-87
2024/01/03 04:10:47;;;;;;;;;;;;;;;8.08;73.76;98273.06;4373256;32;33218;-88
2024/01/03 04:13:18;;;;;;;;;;;;;;;8.23;73.38;98268.38;4372089;32;35194;-87
2024/01/03 04:15:47;;;;;;;;;;;;;;;8.26;73.51;98276.03;4373502;32;34538;-87
2024/01/03 04:18:17;;;;;;;;;;;;;;;8.10;73.93;98279.03;4376273;32;33840;-88
2024/01/03 04:20:47;;;;;;;;;;;;;;;8.19;73.46;98272.78;4371614;32;33275;-88
2024/01/03 04:23:15;;;;;;;;;;;;;;;8.17;73.44;98273.72;4374775;32;34367;-88
2024/01/03 04:25:50;;;;;;;;;;;;;;;8.41;72.62;98270.50;4370696;32;33921;-88
2024/01/03 04:28:25;;;;;;;;;;;;;;;8.22;73.42;98270.13;4375873;32;33533;-89
2024/01/03 04:30:55;;;;;;;;;;;;;;;8.20;73.15;98271.87;4370525;32;32865;-87
2024/01/03 04:33:26;;;;;;;;;;;;;;;8.18;73.21;98267.66;4373562;32;33834;-87
2024/01/03 04:35:55;;;;;;;;;;;;;;;8.06;73.81;98266.22;4370737;32;33891;-89
2024/01/03 04:38:24;;;;;;;;;;;;;;;8.12;73.50;98266.94;4369984;32;34123;-88
2024/01/03 04:40:56;;;;;;;;;;;;;;;8.21;73.27;98263.25;4376077;32;33029;-88
2024/01/03 04:43:30;;;;;;;;;;;;;;;8.02;74.01;98259.44;4370438;32;34860;-89
2024/01/03 04:46:00;;;;;;;;;;;;;;;8.13;73.45;98254.84;4368115;32;34580;-88
2024/01/03 04:48:29;;;;;;;;;;;;;;;8.23;73.46;98247.72;4370944;32;33738;-88
2024/01/03 04:50:59;;;;;;;;;;;;;;;8.18;73.58;98249.56;4376182;32;34724;-87
2024/01/03 04:53:36;;;;;;;;;;;;;;;8.25;73.35;98239.03;4370360;32;33354;-87
2024/01/03 04:56:05;;;;;;;;;;;;;;;7.89;74.68;98238.25;4370640;32;34233;-87
2024/01/03 04:58:37;;;;;;;;;;;;;;;7.93;74.51;98239.87;4369500;32;34794;-87
2024/01/03 05:01:07;;;;;;;;;;;;;;;7.65;76.43;98243.16;4362441;32;32460;-87
2024/01/03 05:03:38;;;;;;;;;;;;;;;7.46;77.94;98245.31;4375126;32;35857;-87
2024/01/03 05:06:07;;;;;;;;;;;;;;;8.08;75.54;98244.62;4370073;32;33754;-87
2024/01/03 05:08:36;;;;;;;;;;;;;;;8.10;74.82;98237.72;4369803;32;34777;-88
2024/01/03 05:11:05;;;;;;;;;;;;;;;8.12;74.69;98240.25;4374164;32;32953;-87
2024/01/03 05:13:35;;;;;;;;;;;;;;;8.16;74.30;98239.25;4375086;32;33412;-86
2024/01/03 05:16:05;;;;;;;;;;;;;;;8.17;74.54;98247.87;4371012;32;34673;-86
2024/01/03 05:18:43;;;;;;;;;;;;;;;8.40;73.60;98248.13;4369616;32;33796;-87
2024/01/03 05:21:12;;;;;;;;;;;;;;;8.30;73.62;98247.50;4371393;32;33307;-86
2024/01/03 05:23:43;;;;;;;;;;;;;;;8.03;75.29;98241.34;4369112;32;33958;-87
2024/01/03 05:26:13;;;;;;;;;;;;;;;8.07;74.95;98239.50;4374150;32;33936;-86
2024/01/03 05:28:48;;;;;;;;;;;;;;;8.23;74.75;98243.38;4368985;32;34797;-87
2024/01/03 05:31:20;;;;;;;;;;;;;;;8.51;73.74;98240.94;4369978;32;33291;-87
2024/01/03 05:33:53;;;;;;;;;;;;;;;8.27;74.57;98239.84;4368442;32;33001;-86
2024/01/03 05:36:22;;;;;;;;;;;;;;;8.39;74.17;98245.56;4369597;32;33327;-87
2024/01/03 05:38:54;;;;;;;;;;;;;;;8.44;74.28;98244.56;4375135;32;33488;-87
2024/01/03 05:41:23;;;;;;;;;;;;;;;8.62;73.88;98247.53;4369030;32;32695;-86
2024/01/03 05:43:54;;;;;;;;;;;;;;;8.32;74.81;98237.12;4368586;32;33787;-87
2024/01/03 05:46:27;;;;;;;;;;;;;;;8.43;74.45;98250.66;4368754;32;33946;-86
2024/01/03 05:48:58;;;;;;;;;;;;;;;8.29;75.77;98242.38;4371662;32;33443;-87
2024/01/03 05:51:27;;;;;;;;;;;;;;;8.39;75.08;98246.41;4359864;32;31711;-87
2024/01/03 05:53:56;;;;;;;;;;;;;;;8.29;75.09;98250.13;4368947;32;34737;-86
2024/01/03 05:56:25;;;;;;;;;;;;;;;8.43;74.53;98255.81;4368956;32;33839;-87
2024/01/03 05:58:59;;;;;;;;;;;;;;;8.60;74.18;98259.66;4369367;32;34184;-86
2024/01/03 06:01:31;;;;;;;;;;;;;;;8.38;75.08;98260.19;4374150;32;33171;-86
2024/01/03 06:04:02;;;;;;;;;;;;;;;8.56;74.77;98265.81;4373289;32;33905;-86
2024/01/03 06:06:34;;;;;;;;;;;;;;;8.60;74.51;98268.28;4368966;32;33542;-86
2024/01/03 06:09:03;;;;;;;;;;;;;;;8.40;75.66;98267.97;4368981;32;35129;-86
2024/01/03 06:11:36;;;;;;;;;;;;;;;8.35;75.49;98268.03;4372658;32;33073;-86
2024/01/03 06:14:04;;;;;;;;;;;;;;;8.63;74.49;98273.34;4374436;32;34290;-86
2024/01/03 06:16:39;;;;;;;;;;;;;;;8.70;74.63;98271.44;4363264;32;34555;-86
2024/01/03 06:19:09;;;;;;;;;;;;;;;8.60;74.77;98275.16;4370095;32;34232;-86
2024/01/03 06:21:45;;;;;;;;;;;;;;;8.50;75.38;98271.97;4370965;32;33117;-86
2024/01/03 06:24:17;;;;;;;;;;;;;;;8.43;75.79;98276.50;4375461;32;34133;-87
2024/01/03 06:26:46;;;;;;;;;;;;;;;8.28;75.70;98272.53;4369805;32;33678;-85
2024/01/03 06:29:26;;;;;;;;;;;;;;;8.34;75.90;98279.28;4369618;32;33837;-87
2024/01/03 06:31:54;;;;;;;;;;;;;;;8.42;75.25;98284.28;4371431;32;33548;-86
2024/01/03 06:34:31;;;;;;;;;;;;;;;8.66;74.32;98293.09;4362382;32;33321;-86
2024/01/03 06:37:05;;;;;;;;;;;;;;;8.37;75.08;98288.69;4375989;32;35032;-86
2024/01/03 06:39:34;;;;;;;;;;;;;;;8.54;74.63;98289.94;4370884;32;34341;-86
2024/01/03 06:42:12;;;;;;;;;;;;;;;8.50;74.21;98297.81;4374947;32;32422;-87
2024/01/03 06:44:40;;;;;;;;;;;;;;;8.46;74.86;98304.81;4371289;32;34173;-86
2024/01/03 06:47:15;;;;;;;;;;;;;;;8.61;73.71;98284.63;4371275;32;34174;-86
2024/01/03 06:49:45;;;;;;;;;;;;;;;8.61;74.18;98282.03;4376438;32;33870;-86
2024/01/03 06:52:15;;;;;;;;;;;;;;;8.66;74.09;98277.59;4373498;32;34185;-86
2024/01/03 06:54:43;;;;;;;;;;;;;;;8.51;74.89;98282.28;4365964;32;33758;-86
2024/01/03 06:57:12;;;;;;;;;;;;;;;8.52;75.16;98283.97;4370901;32;34112;-85
2024/01/03 06:59:41;;;;;;;;;;;;;;;8.89;74.59;98297.59;4375566;32;33988;-86
2024/01/03 07:02:11;;;;;;;;;;;;;;;8.65;76.18;98283.63;4371319;32;33261;-86
2024/01/03 07:04:39;;;;;;;;;;;;;;;8.68;75.78;98284.41;4371498;32;33362;-86
2024/01/03 07:07:15;;;;;;;;;;;;;;;8.76;76.00;98294.53;4371068;32;34227;-85
2024/01/03 07:09:44;;;;;;;;;;;;;;;8.71;75.68;98301.56;4371117;32;34234;-85
2024/01/03 07:12:15;;;;;;;;;;;;;;;8.69;76.48;98296.41;4377344;32;33150;-85
2024/01/03 07:14:43;;;;;;;;;;;;;;;8.72;76.20;98295.50;4371570;32;33657;-86
2024/01/03 07:17:14;;;;;;;;;;;;;;;8.78;76.07;98291.91;4370313;32;35089;-86
2024/01/03 07:19:42;;;;;;;;;;;;;;;8.67;76.94;98281.84;4372246;32;33518;-85
2024/01/03 07:22:15;;;;;;;;;;;;;;;8.54;76.94;98277.03;4376555;32;32499;-86
2024/01/03 07:24:44;;;;;;;;;;;;;;;8.47;78.08;98275.50;4375029;32;33034;-85
2024/01/03 07:27:12;;;;;;;;;;;;;;;8.71;77.12;98275.72;4370953;32;34840;-85
2024/01/03 07:29:49;;;;;;;;;;;;;;;8.78;76.97;98273.81;4371126;32;34538;-85
2024/01/03 07:32:20;;;;;;;;;;;;;;;8.80;77.14;98283.22;4376563;32;33214;-86
2024/01/03 07:34:48;;;;;;;;;;;;;;;8.95;76.55;98284.50;4376168;32;33737;-85
2024/01/03 07:37:26;;;;;;;;;;;;;;;9.06;76.17;98291.94;4370660;32;34563;-86
2024/01/03 07:39:54;;;;;;;;;;;;;;;8.96;77.26;98283.59;4370312;32;34234;-85
2024/01/03 07:42:23;;;;;;;;;;;;;;;9.09;76.88;98291.88;4358879;32;33662;-87
2024/01/03 07:44:52;;;;;;;;;;;;;;;9.09;77.30;98297.03;4361387;32;34155;-85
2024/01/03 07:47:22;;;;;;;;;;;;;;;9.13;77.09;98289.16;4369733;32;34512;-85
2024/01/03 07:49:51;;;;;;;;;;;;;;;9.03;77.85;98286.84;4364181;32;33886;-85
2024/01/03 07:52:21;;;;;;;;;;;;;;;9.08;78.06;98290.16;4374220;32;33196;-85
2024/01/03 07:54:53;;;;;;;;;;;;;;;9.31;76.78;98297.25;4357142;32;33557;-86
2024/01/03 07:57:30;;;;;;;;;;;;;;;9.43;76.22;98296.03;4368835;32;33813;-86
2024/01/03 07:59:59;;;;;;;;;;;;;;;9.66;74.97;98301.31;4346158;32;795679;-85
2024/01/03 08:02:29;;;;;;;;;;;;;;;9.67;75.25;98297.00;4364024;32;33753;-85
2024/01/03 08:04:57;;;;;;;;;;;;;;;9.73;75.04;98289.00;4355481;32;33961;-85
2024/01/03 08:07:27;;;;;;;;;;;;;;;9.42;76.82;98294.31;4355674;32;34922;-85
2024/01/03 08:09:56;;;;;;;;;;;;;;;9.90;74.13;98301.41;4361544;32;34162;-86
2024/01/03 08:12:25;;;;;;;;;;;;;;;9.84;74.59;98302.47;4359207;32;32863;-85
2024/01/03 08:14:54;;;;;;;;;;;;;;;9.96;73.66;98301.22;4355519;32;33970;-86
2024/01/03 08:17:41;;;;;;;;;;;;;;;9.90;73.95;98310.03;4355906;32;34165;-85
2024/01/03 08:20:12;;;;;;;;;;;;;;;9.73;75.24;98317.50;4364132;32;33830;-85
2024/01/03 08:22:43;;;;;;;;;;;;;;;9.61;75.42;98318.72;4375677;32;32618;-85
2024/01/03 08:25:18;;;;;;;;;;;;;;;9.70;75.17;98326.22;4366261;32;33986;-85
2024/01/03 08:27:47;;;;;;;;;;;;;;;9.73;75.56;98317.50;4370861;32;33494;-85
2024/01/03 08:30:18;;;;;;;;;;;;;;;9.78;75.28;98319.03;4371546;32;34008;-84
2024/01/03 08:32:47;;;;;;;;;;;;;;;9.97;74.45;98327.06;4375318;32;32462;-85
2024/01/03 08:35:17;;;;;;;;;;;;;;;10.19;73.13;98327.19;4366782;32;33665;-85
2024/01/03 08:37:47;;;;;;;;;;;;;;;9.98;74.50;98327.94;4369154;32;35227;-84
2024/01/03 08:40:16;;;;;;;;;;;;;;;9.97;74.42;98321.88;4369775;32;34570;-84
2024/01/03 08:42:49;;;;;;;;;;;;;;;10.04;74.42;98322.53;4369270;32;32907;-85
2024/01/03 08:47:51;;;;;;;;;;;;;;;10.18;73.54;98332.47;4359441;32;34370;-85
2024/01/03 08:50:26;;;;;;;;;;;;;;;10.17;73.53;98334.22;4368291;32;32994;-85
2024/01/03 08:52:56;;;;;;;;;;;;;;;10.11;73.79;98320.59;4369453;32;33178;-85
2024/01/03 08:55:26;;;;;;;;;;;;;;;10.17;73.38;98329.03;4373989;32;34864;-85
2024/01/03 08:57:56;;;;;;;;;;;;;;;10.04;73.30;98330.31;4369180;32;35273;-84
2024/01/03 09:00:25;;;;;;;;;;;;;;;10.30;72.24;98331.22;4370977;32;34591;-85
2024/01/03 09:02:57;;;;;;;;;;;;;;;10.13;73.04;98316.22;4370938;32;34570;-85
2024/01/03 09:05:27;;;;;;;;;;;;;;;10.06;73.81;98318.16;4369656;32;33642;-84
2024/01/03 09:07:57;;;;;;;;;;;;;;;10.29;72.44;98332.97;4366264;32;34266;-84
2024/01/03 09:10:27;;;;;;;;;;;;;;;10.17;72.88;98331.63;4366923;32;34206;-84
2024/01/03 09:12:56;;;;;;;;;;;;;;;10.35;72.11;98330.16;4359428;32;31360;-84
2024/01/03 09:15:25;;;;;;;;;;;;;;;10.26;73.07;98336.47;4369397;32;33899;-84
2024/01/03 09:17:57;;;;;;;;;;;;;;;10.53;71.95;98336.47;4376017;32;33920;-84
2024/01/03 09:20:25;;;;;;;;;;;;;;;10.73;70.31;98333.19;4370116;32;33676;-85
2024/01/03 09:23:00;;;;;;;;;;;;;;;10.42;71.85;98330.81;4369724;32;32946;-85
2024/01/03 09:25:29;;;;;;;;;;;;;;;10.78;69.88;98328.69;4342280;32;33191;-85
2024/01/03 09:27:58;;;;;;;;;;;;;;;10.72;69.77;98328.88;4369941;32;34616;-85
2024/01/03 09:30:32;;;;;;;;;;;;;;;10.46;70.90;98335.84;4375442;32;33834;-85
2024/01/03 09:33:05;;;;;;;;;;;;;;;10.53;70.42;98327.84;4370614;32;34101;-85
2024/01/03 09:35:36;;;;;;;;;;;;;;;10.74;68.97;98321.06;4369738;32;33973;-85
2024/01/03 09:38:06;;;;;;;;;;;;;;;10.68;69.23;98327.31;4365981;32;33780;-85
2024/01/03 09:40:36;;;;;;;;;;;;;;;10.77;69.17;98326.13;4362200;32;33843;-85
2024/01/03 09:43:06;;;;;;;;;;;;;;;10.85;69.02;98324.13;4374768;32;33780;-85
2024/01/03 09:45:35;;;;;;;;;;;;;;;11.00;68.52;98333.94;4369637;32;34602;-85
2024/01/03 09:48:09;;;;;;;;;;;;;;;11.09;68.33;98335.34;4369519;32;33617;-86
2024/01/03 09:50:40;;;;;;;;;;;;;;;10.94;68.87;98336.72;4373346;32;33918;-86
2024/01/03 09:53:10;;;;;;;;;;;;;;;10.99;69.28;98337.41;4373029;32;33112;-85
2024/01/03 09:55:39;;;;;;;;;;;;;;;11.18;69.14;98341.94;4358465;32;33790;-85
2024/01/03 09:58:11;;;;;;;;;;;;;;;11.51;68.18;98345.00;4361701;32;34462;-86
2024/01/03 10:00:43;;;;;;;;;;;;;;;11.58;67.86;98337.84;4372674;32;33177;-85
2024/01/03 10:03:12;;;;;;;;;;;;;;;11.64;66.29;98341.00;4372169;32;33045;-86
2024/01/03 10:05:43;;;;;;;;;;;;;;;11.62;66.83;98329.00;4376811;32;34954;-86
2024/01/03 10:08:19;;;;;;;;;;;;;;;11.81;66.69;98349.91;4368166;32;34820;-85
2024/01/03 10:10:56;;;;;;;;;;;;;;;11.79;66.61;98357.78;4371291;32;34895;-85
2024/01/03 10:13:27;;;;;;;;;;;;;;;11.85;67.37;98354.09;4373470;32;32888;-86
2024/01/03 10:15:55;;;;;;;;;;;;;;;11.96;66.67;98351.94;4373257;32;34248;-86
2024/01/03 10:18:30;;;;;;;;;;;;;;;11.93;66.58;98352.88;4376698;32;34615;-86
2024/01/03 10:21:12;;;;;;;;;;;;;;;12.04;66.43;98362.03;4371430;32;33522;-86
2024/01/03 10:23:42;;;;;;;;;;;;;;;12.22;65.52;98360.41;4372541;32;32997;-87
2024/01/03 10:26:12;;;;;;;;;;;;;;;12.36;64.97;98352.91;4370321;32;33800;-87
2024/01/03 10:28:40;;;;;;;;;;;;;;;12.34;65.59;98358.16;4376616;32;33252;-86
2024/01/03 10:31:16;;;;;;;;;;;;;;;12.47;64.00;98347.25;4370946;32;33626;-86
2024/01/03 10:33:45;;;;;;;;;;;;;;;12.67;63.90;98351.59;4373628;32;33902;-87
2024/01/03 10:36:30;;;;;;;;;;;;;;;12.56;63.63;98345.09;4371130;32;33472;-86
2024/01/03 10:39:04;;;;;;;;;;;;;;;12.54;63.51;98343.47;4371871;32;34083;-86
2024/01/03 10:41:32;;;;;;;;;;;;;;;12.32;64.49;98344.38;4376718;32;33190;-86
2024/01/03 10:44:07;;;;;;;;;;;;;;;12.50;64.32;98337.56;4376565;32;32590;-86
2024/01/03 10:46:36;;;;;;;;;;;;;;;12.55;63.47;98339.97;4371114;32;33774;-87
2024/01/03 10:49:09;;;;;;;;;;;;;;;12.61;62.39;98334.47;4370863;32;33841;-86
2024/01/03 10:51:39;;;;;;;;;;;;;;;12.63;62.63;98332.66;4375505;32;33893;-86
2024/01/03 10:54:12;;;;;;;;;;;;;;;12.59;62.51;98331.97;4369628;32;33289;-86
2024/01/03 10:56:46;;;;;;;;;;;;;;;12.44;63.00;98330.00;4356263;32;34154;-87
2024/01/03 10:59:14;;;;;;;;;;;;;;;12.56;62.78;98326.03;4356350;32;34453;-86
2024/01/03 11:01:45;;;;;;;;;;;;;;;12.61;62.02;98311.06;4355055;32;33064;-85
2024/01/03 11:04:16;;;;;;;;;;;;;;;12.65;61.13;98322.19;4370944;32;33021;-85
2024/01/03 11:06:49;;;;;;;;;;;;;;;12.72;62.54;98321.84;4376098;32;34439;-86
2024/01/03 11:09:21;;;;;;;;;;;;;;;12.73;61.94;98318.38;4371530;32;34659;-86
2024/01/03 11:12:07;;;;;;;;;;;;;;;12.78;63.00;98313.78;4370822;32;33733;-86
2024/01/03 11:14:39;;;;;;;;;;;;;;;12.81;62.29;98297.19;4365566;32;33854;-85
2024/01/03 11:19:44;;;;;;;;;;;;;;;13.04;60.36;98311.75;4376648;32;33733;-86
2024/01/03 11:22:16;;;;;;;;;;;;;;;13.12;61.02;98304.47;4372380;32;34379;-86
2024/01/03 11:24:46;;;;;;;;;;;;;;;12.94;61.20;98310.50;4371253;32;32532;-86
2024/01/03 11:27:21;;;;;;;;;;;;;;;13.07;61.39;98302.97;4370770;32;33864;-86
2024/01/03 11:29:58;;;;;;;;;;;;;;;13.11;61.11;98294.94;4372493;32;34773;-87
2024/01/03 11:32:28;;;;;;;;;;;;;;;13.17;61.00;98288.63;4376222;32;33867;-85
2024/01/03 11:35:00;;;;;;;;;;;;;;;13.21;61.41;98287.56;4373548;32;33688;-86
2024/01/03 11:37:32;;;;;;;;;;;;;;;13.36;61.35;98296.44;4368885;32;33876;-85
2024/01/03 11:40:06;;;;;;;;;;;;;;;13.27;61.21;98305.56;4370301;32;34946;-86
2024/01/03 11:42:37;;;;;;;;;;;;;;;13.39;60.75;98310.19;4365275;32;33577;-86
2024/01/03 11:45:11;;;;;;;;;;;;;;;13.29;60.64;98315.87;4374666;32;32964;-85
2024/01/03 11:47:41;;;;;;;;;;;;;;;13.27;61.34;98315.09;4370982;32;33135;-86
2024/01/03 11:50:15;;;;;;;;;;;;;;;13.36;61.14;98306.88;4370817;32;34256;-86
2024/01/03 11:52:48;;;;;;;;;;;;;;;13.33;61.59;98304.41;4373207;32;33471;-85
2024/01/03 11:55:19;;;;;;;;;;;;;;;13.41;60.89;98297.94;4362643;32;32604;-85
2024/01/03 11:57:49;;;;;;;;;;;;;;;13.30;60.42;98299.34;4366001;32;33378;-86
2024/01/03 12:00:19;;;;;;;;;;;;;;;13.39;60.33;98297.16;4370299;32;34835;-86
2024/01/03 12:02:51;;;;;;;;;;;;;;;13.48;60.16;98290.66;4371110;32;33605;-86
2024/01/03 12:05:21;;;;;;;;;;;;;;;13.51;60.64;98292.31;4370529;32;33279;-86
2024/01/03 12:07:50;;;;;;;;;;;;;;;13.29;60.19;98289.84;4375092;32;33105;-86
2024/01/03 12:10:22;;;;;;;;;;;;;;;13.30;60.48;98289.78;4363293;32;34557;-85
2024/01/03 12:12:52;;;;;;;;;;;;;;;13.34;60.21;98280.06;4368488;32;34708;-85
2024/01/03 12:15:24;;;;;;;;;;;;;;;13.30;60.50;98281.13;4369539;32;33341;-86
2024/01/03 12:18:12;;;;;;;;;;;;;;;13.30;60.93;98289.78;4362694;32;33493;-85
2024/01/03 12:20:44;;;;;;;;;;;;;;;13.32;61.09;98284.50;4368852;32;33898;-85
2024/01/03 12:23:18;;;;;;;;;;;;;;;13.26;61.07;98280.38;4365119;32;34193;-86
2024/01/03 12:25:47;;;;;;;;;;;;;;;13.54;60.10;98279.97;4368113;32;33359;-85
2024/01/03 12:28:25;;;;;;;;;;;;;;;13.16;61.75;98279.97;4365760;32;34052;-86
2024/01/03 12:30:53;;;;;;;;;;;;;;;13.32;61.56;98276.69;4373318;32;33992;-86
2024/01/03 12:33:28;;;;;;;;;;;;;;;13.29;61.55;98280.28;4371701;32;33306;-86
2024/01/03 12:36:03;;;;;;;;;;;;;;;13.37;61.58;98278.16;4365423;32;33962;-85
2024/01/03 12:38:32;;;;;;;;;;;;;;;13.44;61.36;98270.91;4365251;32;34587;-85
2024/01/03 12:41:07;;;;;;;;;;;;;;;13.53;61.52;98277.41;4365623;32;34762;-85
2024/01/03 12:43:35;;;;;;;;;;;;;;;13.58;61.40;98265.00;4369132;32;33272;-85
2024/01/03 12:46:04;;;;;;;;;;;;;;;13.55;61.53;98263.41;4365219;32;33251;-85
2024/01/03 12:48:34;;;;;;;;;;;;;;;13.54;61.56;98271.31;4366364;32;34874;-86
2024/01/03 12:51:04;;;;;;;;;;;;;;;13.49;61.68;98265.47;4361873;32;34943;-86
2024/01/03 12:53:35;;;;;;;;;;;;;;;13.49;61.47;98271.53;4366610;32;33693;-86
2024/01/03 12:56:11;;;;;;;;;;;;;;;13.44;61.56;98269.13;4371892;32;32946;-86
2024/01/03 12:58:39;;;;;;;;;;;;;;;13.63;61.55;98273.47;4365362;32;33297;-85
2024/01/03 13:01:11;;;;;;;;;;;;;;;13.61;61.16;98262.28;4367176;32;33826;-85
2024/01/03 13:03:39;;;;;;;;;;;;;;;13.64;61.26;98269.94;4368676;32;32678;-86
2024/01/03 13:06:08;;;;;;;;;;;;;;;13.48;61.78;98269.81;4373203;32;33053;-85
2024/01/03 13:08:37;;;;;;;;;;;;;;;13.58;61.51;98280.63;4366945;32;34168;-85
2024/01/03 13:11:05;;;;;;;;;;;;;;;13.25;62.65;98273.50;4367363;32;34241;-86
2024/01/03 13:13:47;;;;;;;;;;;;;;;13.39;61.89;98278.09;4368412;32;33966;-85
2024/01/03 13:16:16;;;;;;;;;;;;;;;13.37;61.88;98277.31;4366928;32;32870;-86
2024/01/03 13:18:45;;;;;;;;;;;;;;;13.13;62.54;98277.50;4372787;32;33599;-85